METAR AND TAF INFORMATION
METAR FOR EDDV
ADDS - METARS form results

(1528 UTC 30 May 2020)
Data provider http://aviationweather.gov/metar/data/
 
METAR text: EDDV 301520Z 07010KT CAVOK 20/05 Q1023 NOSIG
Conditions at: EDDV (HANNOVER , DE) observed 1520 UTC 30 May 2020
Temperature: 20.0°C (68°F)
Dewpoint: 5.0°C (41°F) [RH = 37%]
Pressure (altimeter): 30.21 inches Hg (1023.0 mb)
Winds: from the ENE (70 degrees) at 12 MPH (10 knots; 5.1 m/s)
Visibility: 6 or more miles (10+ km)
Ceiling: ceiling and visibility are OK
Clouds: unknown
Weather: no significant weather observed at this time

METAR text: EDDV 301450Z 06011KT CAVOK 19/04 Q1024 NOSIG
Conditions at: EDDV (HANNOVER , DE) observed 1450 UTC 30 May 2020
Temperature: 19.0°C (66°F)
Dewpoint: 4.0°C (39°F) [RH = 37%]
Pressure (altimeter): 30.24 inches Hg (1024.0 mb)
Winds: from the ENE (60 degrees) at 13 MPH (11 knots; 5.7 m/s)
Visibility: 6 or more miles (10+ km)
Ceiling: ceiling and visibility are OK
Clouds: unknown
Weather: no significant weather observed at this time

Forecast for: EDDV (HANNOVER , DE)
Text: TAF EDDV 301100Z 3012/3112 07010G20KT CAVOK
Forecast period: 1200 to 1700 UTC 30 May 2020
Forecast type: FROM: standard forecast or significant change
Winds: from the ENE (70 degrees) at 12 MPH (10 knots; 5.1 m/s)
gusting to 23 MPH (20 knots; 10.3 m/s)
Visibility: 6 or more miles 10+ km)
Ceiling: unknown
Clouds: missing
Weather: NSW  (no significant weather)
Text: BECMG 3017/3019 04004KT
Forecast period: 1700 UTC 30 May 2020 to 0600 UTC 31 May 2020
Forecast type: BECOMING: Conditions expected to become as follows by 1900 UTC 30 May 2020
Winds: from the NE (40 degrees) at 5 MPH (4 knots; 2.1 m/s)
Visibility: 6 or more miles 10+ km)
Ceiling: unknown
Clouds: missing
Weather: NSW  (no significant weather)
Text: BECMG 3106/3108 05009KT
Forecast period: 0600 to 1200 UTC 31 May 2020
Forecast type: BECOMING: Conditions expected to become as follows by 0800 UTC 31 May 2020
Winds: from the NE (50 degrees) at 10 MPH (9 knots; 4.6 m/s)
Visibility: 6 or more miles 10+ km)
Ceiling: unknown
Clouds: missing
Weather: NSW  (no significant weather)

 AIRPORT MAP

 RUNWAY INFORMATION

 AIRPORT FREQUENCIES
Type APP Name DIRECTOR Frequency 119.6 MHZ
Type ATIS Name ATIS Frequency 132.125 MHZ
Type GND Name GND Frequency 121.95 MHZ
Type INFO Name BREMEN INF Frequency 119.825 MHZ
Type RDR Name BREMEN RAD Frequency 131.325 MHZ
Type TWR Name TWR Frequency 120.175 MHZ

 AIRPORT NEAR NAVIGATION AIDS
Type NDB Name Hannover Frequency 320 KHZ
Type DME Name Hannover Frequency 113950 KHZ
Type NDB Name Hannover Frequency 332 KHZ
Type DME Name Hannover Frequency 116900 KHZ
Type NDB Name Hannover Frequency 358 KHZ



2018 Air Astana Virtual Airline